sensor_id;sensor_type;location;lat;lon;timestamp;pressure;altitude;pressure_sealevel;temperature;humidity
58295;BME280;45705;55.592;37.460;2023-05-12T00:00:16;99709.66;;;10.30;95.01
58295;BME280;45705;55.592;37.460;2023-05-12T00:02:43;99717.25;;;10.33;94.90
58295;BME280;45705;55.592;37.460;2023-05-12T00:05:09;99716.78;;;10.25;95.49
58295;BME280;45705;55.592;37.460;2023-05-12T00:07:35;99715.16;;;10.24;96.04
58295;BME280;45705;55.592;37.460;2023-05-12T00:10:01;99714.34;;;10.24;95.94
58295;BME280;45705;55.592;37.460;2023-05-12T00:12:31;99706.25;;;10.19;96.59
58295;BME280;45705;55.592;37.460;2023-05-12T00:14:57;99705.75;;;10.17;96.47
58295;BME280;45705;55.592;37.460;2023-05-12T00:17:23;99706.25;;;10.19;96.28
58295;BME280;45705;55.592;37.460;2023-05-12T00:19:48;99708.47;;;10.17;96.27
58295;BME280;45705;55.592;37.460;2023-05-12T00:22:14;99705.00;;;10.11;96.49
58295;BME280;45705;55.592;37.460;2023-05-12T00:24:41;99704.47;;;10.09;95.66
58295;BME280;45705;55.592;37.460;2023-05-12T00:27:07;99702.28;;;10.11;95.19
58295;BME280;45705;55.592;37.460;2023-05-12T00:29:33;99692.53;;;10.10;95.68
58295;BME280;45705;55.592;37.460;2023-05-12T00:34:54;99697.13;;;10.10;95.61
58295;BME280;45705;55.592;37.460;2023-05-12T00:37:19;99699.06;;;10.09;95.88
58295;BME280;45705;55.592;37.460;2023-05-12T00:39:45;99702.94;;;10.03;96.44
58295;BME280;45705;55.592;37.460;2023-05-12T00:42:11;99704.09;;;9.97;96.77
58295;BME280;45705;55.592;37.460;2023-05-12T00:44:37;99695.44;;;9.95;97.04
58295;BME280;45705;55.592;37.460;2023-05-12T00:47:03;99696.25;;;9.95;97.50
58295;BME280;45705;55.592;37.460;2023-05-12T00:49:30;99696.53;;;9.94;96.77
58295;BME280;45705;55.592;37.460;2023-05-12T00:51:57;99698.16;;;9.95;95.07
58295;BME280;45705;55.592;37.460;2023-05-12T00:54:27;99696.56;;;9.89;94.77
58295;BME280;45705;55.592;37.460;2023-05-12T00:56:53;99696.56;;;9.89;93.31
58295;BME280;45705;55.592;37.460;2023-05-12T00:59:20;99695.50;;;9.90;93.87
58295;BME280;45705;55.592;37.460;2023-05-12T01:01:48;99698.22;;;9.90;92.59
58295;BME280;45705;55.592;37.460;2023-05-12T01:04:15;99692.22;;;9.93;93.04
58295;BME280;45705;55.592;37.460;2023-05-12T01:09:10;99688.38;;;9.94;92.42
58295;BME280;45705;55.592;37.460;2023-05-12T01:11:36;99689.78;;;9.91;91.66
58295;BME280;45705;55.592;37.460;2023-05-12T01:14:03;99691.38;;;9.92;92.19
58295;BME280;45705;55.592;37.460;2023-05-12T01:16:35;99696.00;;;9.92;91.96
58295;BME280;45705;55.592;37.460;2023-05-12T01:19:05;99701.22;;;9.88;92.69
58295;BME280;45705;55.592;37.460;2023-05-12T01:21:33;99692.25;;;9.88;91.76
58295;BME280;45705;55.592;37.460;2023-05-12T01:24:03;99698.34;;;9.79;92.20
58295;BME280;45705;55.592;37.460;2023-05-12T01:26:30;99697.31;;;9.75;92.05
58295;BME280;45705;55.592;37.460;2023-05-12T01:29:00;99696.47;;;9.75;91.90
58295;BME280;45705;55.592;37.460;2023-05-12T01:31:27;99698.91;;;9.76;91.32
58295;BME280;45705;55.592;37.460;2023-05-12T01:33:54;99695.09;;;9.77;91.02
58295;BME280;45705;55.592;37.460;2023-05-12T01:36:20;99696.72;;;9.78;90.49
58295;BME280;45705;55.592;37.460;2023-05-12T01:38:46;99703.16;;;9.82;89.79
58295;BME280;45705;55.592;37.460;2023-05-12T01:41:12;99699.38;;;9.83;89.89
58295;BME280;45705;55.592;37.460;2023-05-12T01:43:37;99699.53;;;9.92;88.92
58295;BME280;45705;55.592;37.460;2023-05-12T01:46:03;99693.81;;;9.94;89.65
58295;BME280;45705;55.592;37.460;2023-05-12T01:48:29;99697.63;;;9.93;88.84
58295;BME280;45705;55.592;37.460;2023-05-12T01:50:58;99695.66;;;9.98;89.09
58295;BME280;45705;55.592;37.460;2023-05-12T01:53:26;99692.06;;;10.03;88.29
58295;BME280;45705;55.592;37.460;2023-05-12T01:55:51;99690.66;;;10.05;87.93
58295;BME280;45705;55.592;37.460;2023-05-12T01:58:18;99691.69;;;9.91;88.90
58295;BME280;45705;55.592;37.460;2023-05-12T02:00:45;99692.34;;;10.01;88.35
58295;BME280;45705;55.592;37.460;2023-05-12T02:03:14;99690.38;;;10.07;87.84
58295;BME280;45705;55.592;37.460;2023-05-12T02:05:41;99695.75;;;10.12;87.64
58295;BME280;45705;55.592;37.460;2023-05-12T02:08:06;99694.00;;;10.21;86.97
58295;BME280;45705;55.592;37.460;2023-05-12T02:10:32;99695.16;;;10.15;86.84
58295;BME280;45705;55.592;37.460;2023-05-12T02:12:58;99690.91;;;10.09;86.94
58295;BME280;45705;55.592;37.460;2023-05-12T02:15:26;99690.75;;;10.19;86.22
58295;BME280;45705;55.592;37.460;2023-05-12T02:17:52;99692.84;;;10.28;85.52
58295;BME280;45705;55.592;37.460;2023-05-12T02:20:21;99697.16;;;10.29;84.71
58295;BME280;45705;55.592;37.460;2023-05-12T02:22:47;99695.22;;;10.34;84.14
58295;BME280;45705;55.592;37.460;2023-05-12T02:25:13;99694.56;;;10.42;83.63
58295;BME280;45705;55.592;37.460;2023-05-12T02:27:39;99687.66;;;10.50;82.69
58295;BME280;45705;55.592;37.460;2023-05-12T02:30:05;99697.56;;;10.60;81.42
58295;BME280;45705;55.592;37.460;2023-05-12T02:32:33;99702.31;;;10.68;80.76
58295;BME280;45705;55.592;37.460;2023-05-12T02:35:00;99694.91;;;10.74;80.02
58295;BME280;45705;55.592;37.460;2023-05-12T02:37:26;99690.50;;;10.78;79.66
58295;BME280;45705;55.592;37.460;2023-05-12T02:39:52;99683.28;;;10.87;78.57
58295;BME280;45705;55.592;37.460;2023-05-12T02:42:18;99691.22;;;10.83;78.88
58295;BME280;45705;55.592;37.460;2023-05-12T02:44:44;99691.56;;;10.96;77.70
58295;BME280;45705;55.592;37.460;2023-05-12T02:47:10;99696.03;;;11.06;77.01
58295;BME280;45705;55.592;37.460;2023-05-12T02:49:36;99694.13;;;11.06;76.84
58295;BME280;45705;55.592;37.460;2023-05-12T02:52:03;99694.84;;;11.12;76.52
58295;BME280;45705;55.592;37.460;2023-05-12T02:54:29;99696.88;;;11.20;74.91
58295;BME280;45705;55.592;37.460;2023-05-12T02:56:55;99687.44;;;11.31;74.43
58295;BME280;45705;55.592;37.460;2023-05-12T02:59:22;99690.66;;;11.33;72.65
58295;BME280;45705;55.592;37.460;2023-05-12T03:01:48;99692.09;;;11.45;71.75
58295;BME280;45705;55.592;37.460;2023-05-12T03:04:14;99698.13;;;11.55;70.93
58295;BME280;45705;55.592;37.460;2023-05-12T03:06:41;99695.13;;;11.57;70.76
58295;BME280;45705;55.592;37.460;2023-05-12T03:09:07;99694.59;;;11.55;70.92
58295;BME280;45705;55.592;37.460;2023-05-12T03:11:33;99704.00;;;11.62;70.31
58295;BME280;45705;55.592;37.460;2023-05-12T03:13:58;99705.22;;;11.70;69.79
58295;BME280;45705;55.592;37.460;2023-05-12T03:16:25;99699.69;;;11.89;69.19
58295;BME280;45705;55.592;37.460;2023-05-12T03:18:51;99697.25;;;12.01;68.92
58295;BME280;45705;55.592;37.460;2023-05-12T03:21:17;99696.97;;;12.03;68.41
58295;BME280;45705;55.592;37.460;2023-05-12T03:23:43;99695.34;;;12.16;67.98
58295;BME280;45705;55.592;37.460;2023-05-12T03:26:09;99701.28;;;12.32;67.86
58295;BME280;45705;55.592;37.460;2023-05-12T03:28:35;99701.06;;;12.65;66.69
58295;BME280;45705;55.592;37.460;2023-05-12T03:31:01;99686.63;;;14.29;59.50
58295;BME280;45705;55.592;37.460;2023-05-12T03:33:27;99681.63;;;16.04;52.27
58295;BME280;45705;55.592;37.460;2023-05-12T03:35:52;99683.38;;;17.84;45.87
58295;BME280;45705;55.592;37.460;2023-05-12T03:38:18;99672.03;;;18.79;42.57
58295;BME280;45705;55.592;37.460;2023-05-12T03:40:45;99670.34;;;20.30;38.24
58295;BME280;45705;55.592;37.460;2023-05-12T03:43:17;99671.25;;;20.73;36.89
58295;BME280;45705;55.592;37.460;2023-05-12T03:45:43;99672.28;;;19.62;39.32
58295;BME280;45705;55.592;37.460;2023-05-12T03:48:09;99682.53;;;18.21;42.48
58295;BME280;45705;55.592;37.460;2023-05-12T03:50:35;99685.28;;;17.71;43.98
58295;BME280;45705;55.592;37.460;2023-05-12T03:53:00;99674.03;;;17.40;44.75
58295;BME280;45705;55.592;37.460;2023-05-12T03:55:26;99694.72;;;16.91;45.71
58295;BME280;45705;55.592;37.460;2023-05-12T03:57:52;99693.63;;;16.63;46.63
58295;BME280;45705;55.592;37.460;2023-05-12T04:00:18;99686.81;;;16.69;47.12
58295;BME280;45705;55.592;37.460;2023-05-12T04:02:45;99683.53;;;16.54;47.78
58295;BME280;45705;55.592;37.460;2023-05-12T04:05:13;99689.56;;;16.27;48.78
58295;BME280;45705;55.592;37.460;2023-05-12T04:07:40;99693.53;;;16.38;48.15
58295;BME280;45705;55.592;37.460;2023-05-12T04:10:06;99688.63;;;16.23;49.23
58295;BME280;45705;55.592;37.460;2023-05-12T04:12:32;99690.31;;;16.06;49.97
58295;BME280;45705;55.592;37.460;2023-05-12T04:14:59;99684.06;;;16.27;49.43
58295;BME280;45705;55.592;37.460;2023-05-12T04:17:24;99694.06;;;16.02;49.28
58295;BME280;45705;55.592;37.460;2023-05-12T04:19:52;99679.50;;;16.10;49.83
58295;BME280;45705;55.592;37.460;2023-05-12T04:22:19;99692.09;;;15.72;50.81
58295;BME280;45705;55.592;37.460;2023-05-12T04:24:44;99685.06;;;15.92;49.94
58295;BME280;45705;55.592;37.460;2023-05-12T04:27:10;99679.97;;;16.12;48.79
58295;BME280;45705;55.592;37.460;2023-05-12T04:29:36;99678.50;;;16.57;47.35
58295;BME280;45705;55.592;37.460;2023-05-12T04:32:02;99681.78;;;16.71;46.03
58295;BME280;45705;55.592;37.460;2023-05-12T04:34:28;99678.22;;;16.70;45.87
58295;BME280;45705;55.592;37.460;2023-05-12T04:36:54;99684.75;;;16.66;46.46
58295;BME280;45705;55.592;37.460;2023-05-12T04:39:20;99678.09;;;16.67;46.89
58295;BME280;45705;55.592;37.460;2023-05-12T04:41:46;99674.97;;;16.77;45.55
58295;BME280;45705;55.592;37.460;2023-05-12T04:44:12;99681.28;;;17.11;45.97
58295;BME280;45705;55.592;37.460;2023-05-12T04:46:38;99674.66;;;17.12;45.43
58295;BME280;45705;55.592;37.460;2023-05-12T04:49:04;99675.50;;;17.37;44.44
58295;BME280;45705;55.592;37.460;2023-05-12T04:51:30;99673.34;;;17.43;44.59
58295;BME280;45705;55.592;37.460;2023-05-12T04:53:57;99672.06;;;17.40;44.57
58295;BME280;45705;55.592;37.460;2023-05-12T04:56:22;99671.91;;;17.12;45.51
58295;BME280;45705;55.592;37.460;2023-05-12T04:58:48;99673.91;;;17.48;44.78
58295;BME280;45705;55.592;37.460;2023-05-12T05:01:14;99670.16;;;17.78;43.54
58295;BME280;45705;55.592;37.460;2023-05-12T05:03:40;99671.28;;;17.77;43.79
58295;BME280;45705;55.592;37.460;2023-05-12T05:06:06;99667.59;;;18.34;41.45
58295;BME280;45705;55.592;37.460;2023-05-12T05:08:32;99661.47;;;18.13;42.41
58295;BME280;45705;55.592;37.460;2023-05-12T05:10:58;99665.88;;;18.42;42.11
58295;BME280;45705;55.592;37.460;2023-05-12T05:13:25;99680.25;;;18.10;42.68
58295;BME280;45705;55.592;37.460;2023-05-12T05:15:52;99677.00;;;18.33;42.65
58295;BME280;45705;55.592;37.460;2023-05-12T05:18:19;99671.34;;;18.82;41.80
58295;BME280;45705;55.592;37.460;2023-05-12T05:20:45;99672.25;;;20.45;37.81
58295;BME280;45705;55.592;37.460;2023-05-12T05:23:13;99668.50;;;20.93;35.97
58295;BME280;45705;55.592;37.460;2023-05-12T05:25:40;99667.22;;;20.32;37.13
58295;BME280;45705;55.592;37.460;2023-05-12T05:28:06;99672.53;;;20.05;37.66
58295;BME280;45705;55.592;37.460;2023-05-12T05:30:34;99667.63;;;20.14;37.33
58295;BME280;45705;55.592;37.460;2023-05-12T05:33:00;99670.53;;;20.96;36.42
58295;BME280;45705;55.592;37.460;2023-05-12T05:35:26;99666.88;;;22.64;33.73
58295;BME280;45705;55.592;37.460;2023-05-12T05:37:53;99647.28;;;24.10;30.57
58295;BME280;45705;55.592;37.460;2023-05-12T05:40:20;99652.47;;;26.11;27.62
58295;BME280;45705;55.592;37.460;2023-05-12T05:42:46;99652.50;;;25.86;28.11
58295;BME280;45705;55.592;37.460;2023-05-12T05:45:12;99657.78;;;26.90;27.08
58295;BME280;45705;55.592;37.460;2023-05-12T05:47:38;99650.56;;;26.96;26.15
58295;BME280;45705;55.592;37.460;2023-05-12T05:50:05;99652.56;;;27.59;25.67
58295;BME280;45705;55.592;37.460;2023-05-12T05:52:34;99664.84;;;27.13;26.57
58295;BME280;45705;55.592;37.460;2023-05-12T05:55:01;99664.00;;;27.16;26.04
58295;BME280;45705;55.592;37.460;2023-05-12T05:57:30;99659.56;;;28.23;25.04
58295;BME280;45705;55.592;37.460;2023-05-12T05:59:58;99661.56;;;28.22;24.44
58295;BME280;45705;55.592;37.460;2023-05-12T06:02:25;99655.66;;;28.51;24.08
58295;BME280;45705;55.592;37.460;2023-05-12T06:04:51;99658.00;;;29.18;23.07
58295;BME280;45705;55.592;37.460;2023-05-12T06:07:18;99653.91;;;28.95;23.54
58295;BME280;45705;55.592;37.460;2023-05-12T06:09:43;99650.06;;;29.63;22.63
58295;BME280;45705;55.592;37.460;2023-05-12T06:12:09;99646.22;;;30.45;21.90
58295;BME280;45705;55.592;37.460;2023-05-12T06:14:35;99647.06;;;31.67;21.66
58295;BME280;45705;55.592;37.460;2023-05-12T06:17:01;99650.13;;;30.87;21.13
58295;BME280;45705;55.592;37.460;2023-05-12T06:19:27;99641.13;;;30.16;21.76
58295;BME280;45705;55.592;37.460;2023-05-12T06:21:53;99643.38;;;31.37;21.47
58295;BME280;45705;55.592;37.460;2023-05-12T06:24:19;99638.97;;;31.86;20.49
58295;BME280;45705;55.592;37.460;2023-05-12T06:26:44;99643.38;;;32.45;18.65
58295;BME280;45705;55.592;37.460;2023-05-12T06:29:10;99648.53;;;32.76;17.75
58295;BME280;45705;55.592;37.460;2023-05-12T06:31:36;99656.09;;;31.42;19.70
58295;BME280;45705;55.592;37.460;2023-05-12T06:34:02;99642.25;;;32.43;19.66
58295;BME280;45705;55.592;37.460;2023-05-12T06:36:28;99645.31;;;33.16;18.88
58295;BME280;45705;55.592;37.460;2023-05-12T06:38:55;99643.91;;;32.82;18.26
58295;BME280;45705;55.592;37.460;2023-05-12T06:41:21;99644.50;;;31.89;17.95
58295;BME280;45705;55.592;37.460;2023-05-12T06:43:50;99645.16;;;32.39;16.65
58295;BME280;45705;55.592;37.460;2023-05-12T06:46:19;99644.94;;;32.88;16.91
58295;BME280;45705;55.592;37.460;2023-05-12T06:48:45;99645.50;;;32.41;16.83
58295;BME280;45705;55.592;37.460;2023-05-12T06:51:12;99648.44;;;31.92;18.18
58295;BME280;45705;55.592;37.460;2023-05-12T06:53:39;99642.75;;;32.25;17.36
58295;BME280;45705;55.592;37.460;2023-05-12T06:56:06;99645.50;;;32.41;16.90
58295;BME280;45705;55.592;37.460;2023-05-12T06:58:32;99642.47;;;33.42;16.86
58295;BME280;45705;55.592;37.460;2023-05-12T07:00:58;99645.50;;;31.50;16.01
58295;BME280;45705;55.592;37.460;2023-05-12T07:03:23;99640.03;;;31.75;15.69
58295;BME280;45705;55.592;37.460;2023-05-12T07:05:49;99643.66;;;31.59;14.89
58295;BME280;45705;55.592;37.460;2023-05-12T07:08:15;99634.69;;;31.65;15.05
58295;BME280;45705;55.592;37.460;2023-05-12T07:10:41;99636.28;;;31.95;15.67
58295;BME280;45705;55.592;37.460;2023-05-12T07:13:07;99638.75;;;33.06;14.57
58295;BME280;45705;55.592;37.460;2023-05-12T07:15:33;99639.69;;;31.57;15.66
58295;BME280;45705;55.592;37.460;2023-05-12T07:17:59;99632.66;;;31.16;16.42
58295;BME280;45705;55.592;37.460;2023-05-12T07:20:24;99643.03;;;31.52;15.59
58295;BME280;45705;55.592;37.460;2023-05-12T07:22:50;99633.44;;;31.82;15.26
58295;BME280;45705;55.592;37.460;2023-05-12T07:25:19;99628.13;;;32.30;15.10
58295;BME280;45705;55.592;37.460;2023-05-12T07:27:46;99632.59;;;31.98;14.18
58295;BME280;45705;55.592;37.460;2023-05-12T07:30:12;99634.03;;;31.90;13.61
58295;BME280;45705;55.592;37.460;2023-05-12T07:32:38;99635.16;;;30.74;14.81
58295;BME280;45705;55.592;37.460;2023-05-12T07:35:04;99641.81;;;29.29;15.25
58295;BME280;45705;55.592;37.460;2023-05-12T07:37:31;99649.22;;;28.20;16.68
58295;BME280;45705;55.592;37.460;2023-05-12T07:39:57;99640.34;;;27.91;17.36
58295;BME280;45705;55.592;37.460;2023-05-12T07:42:23;99649.53;;;26.72;18.39
58295;BME280;45705;55.592;37.460;2023-05-12T07:44:49;99649.34;;;25.66;19.02
58295;BME280;45705;55.592;37.460;2023-05-12T07:47:14;99645.34;;;25.81;19.38
58295;BME280;45705;55.592;37.460;2023-05-12T07:49:41;99639.00;;;25.77;19.37
58295;BME280;45705;55.592;37.460;2023-05-12T07:52:06;99645.22;;;24.70;20.70
58295;BME280;45705;55.592;37.460;2023-05-12T07:54:32;99636.94;;;24.11;21.43
58295;BME280;45705;55.592;37.460;2023-05-12T07:56:58;99646.78;;;23.97;21.80
58295;BME280;45705;55.592;37.460;2023-05-12T07:59:24;99632.78;;;22.94;23.05
58295;BME280;45705;55.592;37.460;2023-05-12T08:01:49;99653.91;;;21.61;23.91
58295;BME280;45705;55.592;37.460;2023-05-12T08:04:15;99655.38;;;22.62;23.88
58295;BME280;45705;55.592;37.460;2023-05-12T08:06:41;99646.50;;;23.17;23.43
58295;BME280;45705;55.592;37.460;2023-05-12T08:09:07;99649.91;;;22.69;23.15
58295;BME280;45705;55.592;37.460;2023-05-12T08:11:32;99648.09;;;21.93;23.81
58295;BME280;45705;55.592;37.460;2023-05-12T08:13:58;99647.44;;;21.77;23.51
58295;BME280;45705;55.592;37.460;2023-05-12T08:16:24;99643.47;;;21.74;23.67
58295;BME280;45705;55.592;37.460;2023-05-12T08:18:50;99643.72;;;22.19;23.26
58295;BME280;45705;55.592;37.460;2023-05-12T08:21:16;99653.16;;;21.18;24.02
58295;BME280;45705;55.592;37.460;2023-05-12T08:23:41;99652.59;;;21.09;24.33
58295;BME280;45705;55.592;37.460;2023-05-12T08:26:08;99647.03;;;21.29;23.79
58295;BME280;45705;55.592;37.460;2023-05-12T08:28:33;99643.03;;;20.83;24.10
58295;BME280;45705;55.592;37.460;2023-05-12T08:31:01;99638.75;;;21.09;24.50
58295;BME280;45705;55.592;37.460;2023-05-12T08:33:27;99627.47;;;21.41;23.82
58295;BME280;45705;55.592;37.460;2023-05-12T08:35:53;99627.06;;;21.39;23.78
58295;BME280;45705;55.592;37.460;2023-05-12T08:38:18;99625.72;;;21.52;23.23
58295;BME280;45705;55.592;37.460;2023-05-12T08:43:37;99624.25;;;21.85;22.93
58295;BME280;45705;55.592;37.460;2023-05-12T08:46:06;99626.41;;;21.72;22.15
58295;BME280;45705;55.592;37.460;2023-05-12T08:48:33;99616.78;;;22.16;22.22
58295;BME280;45705;55.592;37.460;2023-05-12T08:51:01;99610.59;;;22.26;21.81
58295;BME280;45705;55.592;37.460;2023-05-12T08:53:28;99610.72;;;22.33;21.72
58295;BME280;45705;55.592;37.460;2023-05-12T08:55:55;99604.19;;;22.22;22.10
58295;BME280;45705;55.592;37.460;2023-05-12T08:58:21;99596.81;;;22.03;21.84
58295;BME280;45705;55.592;37.460;2023-05-12T09:00:48;99617.22;;;21.91;22.34
58295;BME280;45705;55.592;37.460;2023-05-12T09:03:15;99616.59;;;21.52;22.39
58295;BME280;45705;55.592;37.460;2023-05-12T09:05:43;99621.81;;;21.34;22.27
58295;BME280;45705;55.592;37.460;2023-05-12T09:08:09;99614.13;;;21.70;22.46
58295;BME280;45705;55.592;37.460;2023-05-12T09:10:35;99618.97;;;21.07;22.65
58295;BME280;45705;55.592;37.460;2023-05-12T09:13:40;99590.13;;;21.28;22.63
58295;BME280;45705;55.592;37.460;2023-05-12T09:16:11;99599.53;;;21.99;22.42
58295;BME280;45705;55.592;37.460;2023-05-12T09:19:03;99591.81;;;22.42;21.91
58295;BME280;45705;55.592;37.460;2023-05-12T09:21:29;99595.25;;;22.32;22.42
58295;BME280;45705;55.592;37.460;2023-05-12T09:24:02;99594.81;;;22.30;21.91
58295;BME280;45705;55.592;37.460;2023-05-12T09:26:46;99594.75;;;21.70;22.71
58295;BME280;45705;55.592;37.460;2023-05-12T09:29:13;99581.06;;;22.37;22.47
58295;BME280;45705;55.592;37.460;2023-05-12T09:31:51;99590.31;;;21.92;22.59
58295;BME280;45705;55.592;37.460;2023-05-12T09:34:17;99591.16;;;21.66;22.56
58295;BME280;45705;55.592;37.460;2023-05-12T09:36:43;99586.56;;;21.50;23.04
58295;BME280;45705;55.592;37.460;2023-05-12T09:39:12;99584.72;;;21.35;22.88
58295;BME280;45705;55.592;37.460;2023-05-12T09:41:39;99584.75;;;21.88;22.52
58295;BME280;45705;55.592;37.460;2023-05-12T09:44:06;99587.94;;;21.90;22.15
58295;BME280;45705;55.592;37.460;2023-05-12T09:46:36;99588.69;;;21.87;22.40
58295;BME280;45705;55.592;37.460;2023-05-12T09:49:04;99585.06;;;21.83;22.73
58295;BME280;45705;55.592;37.460;2023-05-12T09:51:30;99578.91;;;21.20;22.20
58295;BME280;45705;55.592;37.460;2023-05-12T09:53:57;99576.13;;;21.93;22.03
58295;BME280;45705;55.592;37.460;2023-05-12T09:56:26;99583.75;;;22.03;21.76
58295;BME280;45705;55.592;37.460;2023-05-12T09:58:52;99583.22;;;21.94;21.97
58295;BME280;45705;55.592;37.460;2023-05-12T10:01:19;99569.75;;;22.23;21.68
58295;BME280;45705;55.592;37.460;2023-05-12T10:03:55;99568.78;;;22.38;21.58
58295;BME280;45705;55.592;37.460;2023-05-12T10:08:55;99572.03;;;21.34;22.26
58295;BME280;45705;55.592;37.460;2023-05-12T10:11:23;99574.44;;;21.85;22.37
58295;BME280;45705;55.592;37.460;2023-05-12T10:13:49;99577.63;;;21.37;22.60
58295;BME280;45705;55.592;37.460;2023-05-12T10:16:15;99581.34;;;21.45;22.51
58295;BME280;45705;55.592;37.460;2023-05-12T10:18:42;99583.78;;;21.77;22.13
58295;BME280;45705;55.592;37.460;2023-05-12T10:21:09;99574.22;;;21.71;22.11
58295;BME280;45705;55.592;37.460;2023-05-12T10:23:38;99564.44;;;22.07;22.15
58295;BME280;45705;55.592;37.460;2023-05-12T10:26:05;99571.66;;;21.85;22.32
58295;BME280;45705;55.592;37.460;2023-05-12T10:28:31;99569.09;;;21.73;22.82
58295;BME280;45705;55.592;37.460;2023-05-12T10:30:57;99573.78;;;21.95;22.52
58295;BME280;45705;55.592;37.460;2023-05-12T10:33:24;99563.44;;;22.53;22.04
58295;BME280;45705;55.592;37.460;2023-05-12T10:35:51;99565.66;;;22.40;22.09
58295;BME280;45705;55.592;37.460;2023-05-12T10:38:17;99563.78;;;21.87;22.28
58295;BME280;45705;55.592;37.460;2023-05-12T10:40:54;99568.78;;;21.78;22.54
58295;BME280;45705;55.592;37.460;2023-05-12T10:43:23;99553.50;;;22.18;21.87
58295;BME280;45705;55.592;37.460;2023-05-12T10:51:49;99553.59;;;22.25;22.18
58295;BME280;45705;55.592;37.460;2023-05-12T10:54:20;99563.06;;;22.24;22.33
58295;BME280;45705;55.592;37.460;2023-05-12T10:56:47;99561.50;;;22.57;22.00
58295;BME280;45705;55.592;37.460;2023-05-12T10:59:20;99571.41;;;21.97;23.15
58295;BME280;45705;55.592;37.460;2023-05-12T11:02:00;99562.38;;;22.00;22.97
58295;BME280;45705;55.592;37.460;2023-05-12T11:04:49;99567.28;;;21.84;23.06
58295;BME280;45705;55.592;37.460;2023-05-12T11:07:19;99566.50;;;21.83;23.32
58295;BME280;45705;55.592;37.460;2023-05-12T11:09:46;99573.03;;;21.98;23.22
58295;BME280;45705;55.592;37.460;2023-05-12T11:12:13;99569.91;;;22.03;22.95
58295;BME280;45705;55.592;37.460;2023-05-12T11:14:41;99570.53;;;21.40;23.34
58295;BME280;45705;55.592;37.460;2023-05-12T11:17:07;99567.38;;;21.91;22.79
58295;BME280;45705;55.592;37.460;2023-05-12T11:19:44;99571.44;;;21.71;23.53
58295;BME280;45705;55.592;37.460;2023-05-12T11:22:11;99574.09;;;21.90;23.54
58295;BME280;45705;55.592;37.460;2023-05-12T11:24:39;99574.50;;;21.92;23.70
58295;BME280;45705;55.592;37.460;2023-05-12T11:27:10;99577.34;;;21.69;24.19
58295;BME280;45705;55.592;37.460;2023-05-12T11:29:36;99574.63;;;21.73;23.96
58295;BME280;45705;55.592;37.460;2023-05-12T11:32:04;99582.72;;;21.58;23.60
58295;BME280;45705;55.592;37.460;2023-05-12T11:34:30;99577.00;;;21.24;24.13
58295;BME280;45705;55.592;37.460;2023-05-12T11:36:56;99574.19;;;21.44;24.24
58295;BME280;45705;55.592;37.460;2023-05-12T11:39:26;99567.81;;;21.67;24.10
58295;BME280;45705;55.592;37.460;2023-05-12T11:41:53;99561.75;;;21.84;24.18
58295;BME280;45705;55.592;37.460;2023-05-12T11:44:20;99560.81;;;22.03;24.00
58295;BME280;45705;55.592;37.460;2023-05-12T11:47:10;99553.09;;;22.16;23.82
58295;BME280;45705;55.592;37.460;2023-05-12T11:49:53;99559.78;;;22.15;24.03
58295;BME280;45705;55.592;37.460;2023-05-12T11:52:21;99548.31;;;21.86;23.26
58295;BME280;45705;55.592;37.460;2023-05-12T11:54:51;99553.44;;;21.57;23.27
58295;BME280;45705;55.592;37.460;2023-05-12T11:57:32;99551.50;;;21.88;23.10
58295;BME280;45705;55.592;37.460;2023-05-12T12:00:02;99548.53;;;22.00;22.96
58295;BME280;45705;55.592;37.460;2023-05-12T12:02:35;99545.56;;;22.16;22.74
58295;BME280;45705;55.592;37.460;2023-05-12T12:05:03;99544.22;;;22.33;22.75
58295;BME280;45705;55.592;37.460;2023-05-12T12:07:34;99540.84;;;22.20;22.68
58295;BME280;45705;55.592;37.460;2023-05-12T12:10:16;99547.88;;;22.11;22.87
58295;BME280;45705;55.592;37.460;2023-05-12T12:12:43;99532.19;;;22.22;22.52
58295;BME280;45705;55.592;37.460;2023-05-12T12:15:10;99538.59;;;22.26;22.44
58295;BME280;45705;55.592;37.460;2023-05-12T12:17:36;99537.31;;;22.54;22.54
58295;BME280;45705;55.592;37.460;2023-05-12T12:20:02;99526.63;;;22.22;22.66
58295;BME280;45705;55.592;37.460;2023-05-12T12:22:31;99518.41;;;21.95;22.76
58295;BME280;45705;55.592;37.460;2023-05-12T12:24:59;99525.94;;;22.29;22.84
58295;BME280;45705;55.592;37.460;2023-05-12T12:27:25;99531.63;;;22.39;22.86
58295;BME280;45705;55.592;37.460;2023-05-12T12:29:51;99530.69;;;22.28;22.79
58295;BME280;45705;55.592;37.460;2023-05-12T12:32:17;99532.50;;;22.17;23.10
58295;BME280;45705;55.592;37.460;2023-05-12T12:34:43;99522.88;;;22.37;22.34
58295;BME280;45705;55.592;37.460;2023-05-12T12:37:10;99518.53;;;21.76;22.79
58295;BME280;45705;55.592;37.460;2023-05-12T12:39:36;99518.16;;;22.08;23.23
58295;BME280;45705;55.592;37.460;2023-05-12T12:42:02;99520.34;;;22.25;22.85
58295;BME280;45705;55.592;37.460;2023-05-12T12:44:28;99521.19;;;22.29;23.08
58295;BME280;45705;55.592;37.460;2023-05-12T12:46:54;99517.59;;;22.25;23.27
58295;BME280;45705;55.592;37.460;2023-05-12T12:49:20;99521.28;;;22.36;23.30
58295;BME280;45705;55.592;37.460;2023-05-12T12:51:46;99514.16;;;22.35;22.82
58295;BME280;45705;55.592;37.460;2023-05-12T12:54:12;99513.28;;;22.28;23.36
58295;BME280;45705;55.592;37.460;2023-05-12T12:56:39;99515.00;;;22.39;22.92
58295;BME280;45705;55.592;37.460;2023-05-12T12:59:05;99512.69;;;22.49;23.26
58295;BME280;45705;55.592;37.460;2023-05-12T13:01:31;99512.78;;;22.56;22.71
58295;BME280;45705;55.592;37.460;2023-05-12T13:03:58;99503.22;;;22.50;22.74
58295;BME280;45705;55.592;37.460;2023-05-12T13:06:25;99513.44;;;21.78;22.90